Time;durP1;ratioP1;P1;durP2;ratioP2;P2;SDS_P1;SDS_P2;PMS_P1;PMS_P2;Temp;Humidity;BMP_temperature;BMP_pressure;BME280_temperature;BME280_humidity;BME280_pressure;Samples;Min_cycle;Max_cycle;Signal;HPM_P1;HPM_P2
2022/07/14 00:00:46;;;;;;;5.53;4.78;;;;;;;17.51;100.00;100351.47;1745334;81;21022;-86
2022/07/14 00:03:13;;;;;;;5.00;4.50;;;;;;;17.50;100.00;100345.91;1693825;83;21057;-87
2022/07/14 00:05:41;;;;;;;4.65;3.52;;;;;;;17.50;100.00;100345.91;1676369;85;21065;-86
2022/07/14 00:08:08;;;;;;;3.52;3.20;;;;;;;17.50;100.00;100349.84;1744116;81;21065;-87
2022/07/14 00:10:36;;;;;;;3.20;2.12;;;;;;;17.46;100.00;100344.10;1752623;81;21114;-87
2022/07/14 00:13:03;;;;;;;2.75;1.72;;;;;;;17.45;100.00;100343.77;1754065;80;21097;-86
2022/07/14 00:15:31;;;;;;;3.62;1.87;;;;;;;17.44;100.00;100350.49;1772192;81;21089;-86
2022/07/14 00:17:59;;;;;;;4.10;2.02;;;;;;;17.43;100.00;100350.16;1771555;80;21484;-86
2022/07/14 00:20:27;;;;;;;2.00;1.75;;;;;;;17.45;100.00;100341.14;1771639;81;21101;-87
2022/07/14 00:22:58;;;;;;;2.85;1.77;;;;;;;17.47;100.00;100344.40;1771592;81;21528;-86
2022/07/14 00:25:26;;;;;;;3.27;1.50;;;;;;;17.45;100.00;100341.61;1771567;80;21062;-86
2022/07/14 00:27:54;;;;;;;5.92;1.72;;;;;;;17.42;100.00;100337.51;1771787;81;21572;-86
2022/07/14 00:30:22;;;;;;;2.22;2.00;;;;;;;17.43;100.00;100333.05;1771272;81;21630;-86
2022/07/14 00:32:50;;;;;;;3.58;1.90;;;;;;;17.42;100.00;100330.93;1771866;81;21106;-86
2022/07/14 00:35:18;;;;;;;2.47;1.62;;;;;;;17.39;100.00;100326.50;1771589;81;21148;-86
2022/07/14 00:37:45;;;;;;;1.90;1.75;;;;;;;17.39;100.00;100322.04;1771668;81;20997;-85
2022/07/14 00:40:13;;;;;;;1.82;1.57;;;;;;;17.38;100.00;100326.16;1772062;80;21034;-85
2022/07/14 00:42:48;;;;;;;3.52;1.67;;;;;;;17.35;100.00;100327.33;1771519;80;21018;-87
2022/07/14 00:45:19;;;;;;;1.72;1.62;;;;;;;17.30;100.00;100327.83;1768896;81;21029;-85
2022/07/14 00:47:48;;;;;;;3.17;1.50;;;;;;;17.29;100.00;100328.00;1772004;81;21126;-86
2022/07/14 00:50:17;;;;;;;1.85;1.50;;;;;;;17.28;100.00;100327.16;1771484;81;21062;-86
2022/07/14 00:52:48;;;;;;;2.70;1.70;;;;;;;17.26;100.00;100323.90;1771647;80;21046;-86
2022/07/14 00:55:16;;;;;;;1.70;1.60;;;;;;;17.26;100.00;100322.58;1771908;81;21034;-85
2022/07/14 00:57:43;;;;;;;4.22;2.00;;;;;;;17.23;100.00;100314.17;1772074;81;21034;-86
2022/07/14 01:00:14;;;;;;;3.33;2.30;;;;;;;17.20;100.00;100311.38;1772132;81;21222;-86
2022/07/14 01:02:44;;;;;;;2.60;2.15;;;;;;;17.18;100.00;100307.61;1771501;80;21049;-85
2022/07/14 01:05:12;;;;;;;2.70;2.50;;;;;;;17.19;100.00;100308.42;1771585;81;21037;-86
2022/07/14 01:07:41;;;;;;;2.70;2.35;;;;;;;17.18;100.00;100303.66;1771733;81;21018;-86
2022/07/14 01:10:09;;;;;;;2.83;2.17;;;;;;;17.16;100.00;100300.88;1772130;81;21080;-86
2022/07/14 01:12:39;;;;;;;3.27;2.42;;;;;;;17.14;100.00;100301.53;1771853;81;21171;-87
2022/07/14 01:15:07;;;;;;;4.87;2.47;;;;;;;17.09;100.00;100293.33;1771685;81;21093;-86
2022/07/14 01:17:35;;;;;;;2.65;2.45;;;;;;;17.03;100.00;100294.30;1771786;81;21010;-85
2022/07/14 01:20:03;;;;;;;3.15;2.80;;;;;;;16.99;100.00;100291.69;1772230;81;21061;-87
2022/07/14 01:22:30;;;;;;;2.92;2.60;;;;;;;16.97;100.00;100294.97;1771899;81;21002;-86
2022/07/14 01:24:57;;;;;;;2.85;2.60;;;;;;;16.96;100.00;100292.51;1771754;81;21087;-87
2022/07/14 01:27:26;;;;;;;3.60;3.30;;;;;;;16.95;100.00;100295.61;1771709;81;21034;-87
2022/07/14 01:29:54;;;;;;;3.65;3.33;;;;;;;16.95;100.00;100300.88;1770957;81;21054;-86
2022/07/14 01:32:22;;;;;;;4.45;3.98;;;;;;;16.94;100.00;100301.89;1771778;81;21069;-86
2022/07/14 01:34:50;;;;;;;3.92;3.62;;;;;;;16.94;100.00;100308.46;1772095;80;21097;-86
2022/07/14 01:37:17;;;;;;;4.80;3.67;;;;;;;16.93;100.00;100301.55;1771808;81;22000;-86
2022/07/14 01:39:44;;;;;;;4.67;3.58;;;;;;;16.90;100.00;100308.42;1771949;80;21984;-86
2022/07/14 01:42:11;;;;;;;4.75;3.80;;;;;;;16.88;100.00;100309.06;1771623;80;21085;-87
2022/07/14 01:44:39;;;;;;;4.47;4.10;;;;;;;16.86;100.00;100304.48;1771977;81;21089;-87
2022/07/14 01:47:09;;;;;;;4.90;4.12;;;;;;;16.83;100.00;100312.69;1771602;80;21097;-87
2022/07/14 01:49:37;;;;;;;5.20;4.80;;;;;;;16.83;100.00;100311.37;1771460;81;21148;-86
2022/07/14 01:52:06;;;;;;;8.30;7.25;;;;;;;16.84;100.00;100310.39;1768329;81;21041;-86
2022/07/14 01:54:34;;;;;;;8.13;7.33;;;;;;;16.84;100.00;100311.20;1772179;81;21033;-87
2022/07/14 01:57:02;;;;;;;7.92;7.05;;;;;;;16.83;100.00;100306.92;1771722;81;21505;-86
2022/07/14 01:59:30;;;;;;;8.68;7.20;;;;;;;16.83;100.00;100301.66;1772063;81;21021;-86
2022/07/14 02:01:59;;;;;;;7.30;6.75;;;;;;;16.87;100.00;100304.79;1771576;81;21770;-86
2022/07/14 02:04:26;;;;;;;7.65;6.95;;;;;;;16.89;100.00;100302.83;1750778;80;21077;-86
2022/07/14 02:06:56;;;;;;;7.67;7.05;;;;;;;16.92;100.00;100305.14;1715355;83;21003;-86
2022/07/14 02:12:21;;;;;;;7.58;6.87;;;;;;;16.97;100.00;100305.98;1744436;82;21072;-86
2022/07/14 02:14:49;;;;;;;7.83;7.12;;;;;;;17.00;100.00;100303.02;1715800;83;21785;-87
2022/07/14 02:17:16;;;;;;;7.85;7.05;;;;;;;17.00;100.00;100303.02;1749152;81;21077;-86
2022/07/14 02:19:44;;;;;;;8.35;7.55;;;;;;;17.01;100.00;100305.50;1715468;83;21068;-87
2022/07/14 02:22:12;;;;;;;8.35;7.55;;;;;;;17.00;100.00;100305.64;1749127;81;21101;-86
2022/07/14 02:24:39;;;;;;;8.55;7.75;;;;;;;16.99;100.00;100306.15;1716076;83;21094;-86
2022/07/14 02:27:12;;;;;;;8.65;7.85;;;;;;;16.97;100.00;100302.85;1749088;81;21583;-87
2022/07/14 02:29:40;;;;;;;8.78;7.90;;;;;;;16.96;100.00;100305.16;1715236;83;21092;-86
2022/07/14 02:32:09;;;;;;;8.20;7.50;;;;;;;16.99;100.00;100306.62;1749303;81;21092;-88
2022/07/14 02:34:36;;;;;;;8.50;7.72;;;;;;;17.01;100.00;100305.50;1715472;83;21031;-86
2022/07/14 02:37:03;;;;;;;9.95;8.95;;;;;;;17.04;100.00;100303.03;1749591;81;21089;-87
2022/07/14 02:39:31;;;;;;;9.13;8.33;;;;;;;17.05;100.00;100302.05;1748799;82;21112;-87
2022/07/14 02:41:58;;;;;;;10.72;7.40;;;;;;;17.05;100.00;100300.73;1715689;83;21073;-87
2022/07/14 02:44:26;;;;;;;7.60;6.90;;;;;;;17.04;100.00;100300.39;1748796;82;21108;-87
2022/07/14 02:46:53;;;;;;;8.18;7.47;;;;;;;17.01;100.00;100291.03;1749290;81;21080;-88
2022/07/14 02:49:20;;;;;;;7.50;6.87;;;;;;;16.99;100.00;100295.63;1715856;83;21020;-87
2022/07/14 02:51:49;;;;;;;7.72;6.85;;;;;;;16.96;100.00;100293.31;1748797;81;21045;-88
2022/07/14 02:54:18;;;;;;;7.37;6.67;;;;;;;16.92;100.00;100298.56;1749031;82;21029;-88
2022/07/14 02:56:46;;;;;;;7.80;6.90;;;;;;;16.86;100.00;100307.11;1715733;83;21075;-88
2022/07/14 02:59:15;;;;;;;8.18;7.05;;;;;;;16.83;100.00;100295.59;1749040;81;21062;-87
2022/07/14 03:01:44;;;;;;;6.70;6.12;;;;;;;16.81;100.00;100295.77;1744651;82;21041;-87
2022/07/14 03:04:13;;;;;;;7.50;6.40;;;;;;;16.79;100.00;100292.48;1759217;80;21212;-87
2022/07/14 03:06:41;;;;;;;6.40;5.85;;;;;;;16.78;100.00;100293.46;1770969;80;21093;-87
2022/07/14 03:09:09;;;;;;;6.75;6.10;;;;;;;16.80;100.00;100286.71;1771775;81;21057;-86
2022/07/14 03:11:37;;;;;;;7.28;6.67;;;;;;;16.80;100.00;100289.34;1771522;81;21508;-86
2022/07/14 03:14:04;;;;;;;8.60;6.35;;;;;;;16.80;100.00;100292.81;1771494;81;21054;-87
2022/07/14 03:16:32;;;;;;;6.50;6.00;;;;;;;16.80;100.00;100291.97;1748021;81;21913;-86
2022/07/14 03:19:01;;;;;;;7.45;6.78;;;;;;;16.79;100.00;100303.47;1768110;81;21460;-87
2022/07/14 03:21:29;;;;;;;6.95;6.33;;;;;;;16.80;100.00;100306.43;1771860;81;21045;-86
2022/07/14 03:23:56;;;;;;;6.40;5.78;;;;;;;16.79;100.00;100304.31;1771256;81;21646;-86
2022/07/14 03:26:25;;;;;;;8.78;7.00;;;;;;;16.79;100.00;100308.25;1771225;80;21081;-86
2022/07/14 03:28:53;;;;;;;7.15;6.42;;;;;;;16.78;100.00;100307.92;1771645;80;21956;-86
2022/07/14 03:31:21;;;;;;;8.03;7.17;;;;;;;16.77;100.00;100306.27;1771507;80;21017;-85
2022/07/14 03:33:50;;;;;;;7.87;6.85;;;;;;;16.78;100.00;100300.03;1771446;81;22135;-86
2022/07/14 03:36:22;;;;;;;9.28;7.37;;;;;;;16.80;100.00;100303.33;1771894;80;21046;-85
2022/07/14 03:38:49;;;;;;;9.58;8.18;;;;;;;16.82;100.00;100307.09;1771522;81;21061;-86
2022/07/14 03:41:17;;;;;;;10.68;9.43;;;;;;;16.83;100.00;100308.75;1771826;80;21125;-86
2022/07/14 03:43:44;;;;;;;9.63;8.73;;;;;;;16.83;100.00;100317.44;1771832;81;21069;-86
2022/07/14 03:46:13;;;;;;;10.25;9.25;;;;;;;16.85;100.00;100324.68;1747928;81;21160;-86
2022/07/14 03:48:42;;;;;;;11.88;9.83;;;;;;;16.89;100.00;100322.55;1760233;81;21073;-86
2022/07/14 03:51:09;;;;;;;12.58;10.40;;;;;;;16.93;100.00;100320.44;1761179;80;21034;-86
2022/07/14 03:53:39;;;;;;;12.85;10.43;;;;;;;16.95;100.00;100327.17;1769260;81;21158;-86
2022/07/14 03:56:07;;;;;;;13.15;10.82;;;;;;;17.00;100.00;100324.05;1745649;81;21515;-86
2022/07/14 03:58:45;;;;;;;12.58;10.75;;;;;;;17.05;100.00;100327.51;1739142;82;21054;-86
2022/07/14 04:01:14;;;;;;;13.68;10.18;;;;;;;17.11;100.00;100317.63;1739627;82;21027;-86
2022/07/14 04:03:43;;;;;;;15.93;11.12;;;;;;;17.16;100.00;100321.92;1737311;82;21113;-87
2022/07/14 04:06:10;;;;;;;11.85;10.35;;;;;;;17.20;100.00;100328.48;1732614;82;21147;-86
2022/07/14 04:08:37;;;;;;;12.50;11.10;;;;;;;17.25;100.00;100331.94;1732602;82;21042;-86
2022/07/14 04:11:06;;;;;;;13.93;11.18;;;;;;;17.27;100.00;100332.59;1732856;82;21552;-86
2022/07/14 04:13:35;;;;;;;11.40;10.30;;;;;;;17.28;100.00;100329.80;1732362;82;21145;-86
2022/07/14 04:16:02;;;;;;;11.43;7.72;;;;;;;17.29;100.00;100323.55;1732734;82;21132;-87
2022/07/14 04:18:32;;;;;;;8.70;7.85;;;;;;;17.33;100.00;100323.55;1731295;82;21931;-86
2022/07/14 04:20:59;;;;;;;8.98;7.70;;;;;;;17.33;100.00;100316.98;1703542;82;21507;-86
2022/07/14 04:23:27;;;;;;;10.78;8.03;;;;;;;17.35;100.00;100317.61;1732669;82;21556;-86
2022/07/14 04:25:56;;;;;;;8.10;7.33;;;;;;;17.40;100.00;100323.69;1732906;82;21074;-85
2022/07/14 04:28:25;;;;;;;6.72;6.12;;;;;;;17.42;100.00;100324.34;1732740;82;21077;-86
2022/07/14 04:30:52;;;;;;;9.88;6.55;;;;;;;17.38;100.00;100320.91;1733087;82;21241;-87
2022/07/14 04:33:21;;;;;;;7.92;7.22;;;;;;;17.34;100.00;100323.89;1733154;82;20995;-86
2022/07/14 04:35:51;;;;;;;8.03;7.20;;;;;;;17.35;100.00;100320.75;1732544;82;21055;-85
2022/07/14 04:38:19;;;;;;;8.85;7.85;;;;;;;17.39;100.00;100319.92;1733182;82;21038;-86
2022/07/14 04:40:53;;;;;;;9.23;8.33;;;;;;;17.42;100.00;100321.72;1728118;82;21181;-85
2022/07/14 04:43:20;;;;;;;12.35;8.90;;;;;;;17.48;100.00;100316.28;1732811;82;21208;-87
2022/07/14 04:45:49;;;;;;;9.33;8.43;;;;;;;17.54;100.00;100330.08;1742641;80;21112;-86
2022/07/14 04:48:17;;;;;;;9.60;8.03;;;;;;;17.58;100.00;100325.30;1744770;80;21042;-85
2022/07/14 04:53:30;;;;;;;6.95;6.35;;;;;;;17.71;100.00;100328.73;1746655;80;21022;-85
2022/07/14 04:55:59;;;;;;;6.87;6.20;;;;;;;17.77;100.00;100334.14;1747563;80;21469;-86
2022/07/14 04:58:34;;;;;;;6.75;6.15;;;;;;;17.81;100.00;100332.80;1743400;80;21037;-85
2022/07/14 05:01:03;;;;;;;6.28;5.65;;;;;;;17.81;100.00;100329.36;1733998;82;21037;-85
2022/07/14 05:03:32;;;;;;;7.97;6.40;;;;;;;17.82;100.00;100333.13;1730747;80;21050;-86
2022/07/14 05:05:59;;;;;;;7.53;5.37;;;;;;;17.83;100.00;100336.58;1736649;82;21031;-86
2022/07/14 05:08:27;;;;;;;6.78;6.20;;;;;;;17.84;100.00;100335.59;1731580;82;21123;-87
2022/07/14 05:10:55;;;;;;;6.17;5.67;;;;;;;17.84;100.00;100334.78;1677002;84;21045;-85
2022/07/14 05:13:22;;;;;;;7.75;6.87;;;;;;;17.79;100.00;100336.09;1707207;83;21620;-86
2022/07/14 05:15:50;;;;;;;7.75;6.85;;;;;;;17.79;100.00;100343.19;1707371;83;21050;-85
2022/07/14 05:18:17;;;;;;;7.30;6.70;;;;;;;17.79;100.00;100337.92;1707550;84;21107;-87
2022/07/14 05:20:44;;;;;;;8.30;7.58;;;;;;;17.83;100.00;100336.58;1707191;83;21843;-87
2022/07/14 05:23:12;;;;;;;7.40;6.70;;;;;;;17.89;100.00;100333.28;1722821;81;21073;-85
2022/07/14 05:25:39;;;;;;;8.33;7.70;;;;;;;17.99;100.00;100324.39;1728399;81;21034;-85
2022/07/14 05:28:07;;;;;;;7.60;7.00;;;;;;;18.09;100.00;100328.94;1707282;82;21049;-86
2022/07/14 05:30:39;;;;;;;7.20;6.50;;;;;;;18.17;100.00;100334.69;1717219;82;21634;-86
2022/07/14 05:33:07;;;;;;;7.78;6.40;;;;;;;18.19;100.00;100333.51;1728960;82;21213;-86
2022/07/14 05:35:37;;;;;;;7.17;6.47;;;;;;;18.18;100.00;100328.42;1716970;82;21018;-86
2022/07/14 05:38:04;;;;;;;7.42;6.80;;;;;;;18.10;100.00;100330.11;1728920;81;21059;-85
2022/07/14 05:40:32;;;;;;;8.10;7.40;;;;;;;18.05;100.00;100335.05;1723170;82;21519;-85
2022/07/14 05:43:01;;;;;;;10.75;8.53;;;;;;;18.07;100.00;100338.82;1719073;82;21168;-87
2022/07/14 05:45:29;;;;;;;9.88;7.97;;;;;;;18.10;100.00;100335.86;1727046;82;21167;-86
2022/07/14 05:47:56;;;;;;;8.98;8.18;;;;;;;18.15;100.00;100334.02;1717453;83;21038;-85
2022/07/14 05:50:25;;;;;;;8.85;7.65;;;;;;;18.16;100.00;100339.11;1721804;82;21539;-84
2022/07/14 05:52:52;;;;;;;7.67;7.03;;;;;;;18.11;100.00;100333.55;1717046;82;21090;-85
2022/07/14 05:55:24;;;;;;;9.45;7.67;;;;;;;18.05;100.00;100338.19;1717258;82;21036;-85
2022/07/14 05:57:54;;;;;;;8.95;7.50;;;;;;;18.03;100.00;100336.22;1717540;83;21252;-86
2022/07/14 06:00:23;;;;;;;7.00;6.40;;;;;;;18.09;100.00;100331.58;1717175;83;21065;-85
2022/07/14 06:02:50;;;;;;;6.47;5.90;;;;;;;18.24;100.00;100331.68;1717279;83;21105;-84
2022/07/14 06:05:19;;;;;;;7.97;6.10;;;;;;;18.47;100.00;100329.57;1712843;82;21540;-86
2022/07/14 06:07:47;;;;;;;7.60;5.62;;;;;;;18.69;100.00;100328.76;1717620;83;21065;-87
2022/07/14 06:10:15;;;;;;;7.70;4.70;;;;;;;18.87;100.00;100328.97;1717130;83;21142;-85
2022/07/14 06:12:46;;;;;;;4.47;4.08;;;;;;;19.00;100.00;100331.84;1716987;83;21017;-86
2022/07/14 06:15:15;;;;;;;6.22;4.67;;;;;;;19.05;100.00;100332.16;1717805;83;21066;-85
2022/07/14 06:17:44;;;;;;;5.55;4.45;;;;;;;19.02;100.00;100335.65;1732571;81;21088;-87
2022/07/14 06:20:12;;;;;;;4.17;3.87;;;;;;;18.97;100.00;100328.74;1754770;81;21077;-85
2022/07/14 06:22:41;;;;;;;5.08;4.67;;;;;;;18.93;100.00;100331.43;1749841;81;21259;-86
2022/07/14 06:25:09;;;;;;;5.55;5.08;;;;;;;18.85;100.00;100330.47;1754656;81;21041;-86
2022/07/14 06:27:36;;;;;;;5.95;5.40;;;;;;;18.79;100.00;100327.20;1754603;81;21112;-86
2022/07/14 06:30:09;;;;;;;8.60;7.65;;;;;;;18.81;100.00;100329.17;1754393;81;21052;-85
2022/07/14 06:32:41;;;;;;;9.58;8.68;;;;;;;18.90;100.00;100323.34;1754391;81;21597;-85
2022/07/14 06:35:11;;;;;;;7.78;7.05;;;;;;;18.97;100.00;100319.03;1754854;81;21127;-87
2022/07/14 06:37:39;;;;;;;8.03;7.22;;;;;;;19.04;100.00;100323.08;1753959;81;21084;-85
2022/07/14 06:40:09;;;;;;;9.35;7.75;;;;;;;19.13;100.00;100321.20;1725316;81;21037;-87
2022/07/14 06:42:38;;;;;;;8.65;7.85;;;;;;;19.30;100.00;100322.70;1750202;81;21041;-86
2022/07/14 06:45:13;;;;;;;8.58;7.67;;;;;;;19.54;100.00;100328.21;1754161;81;21040;-85
2022/07/14 06:47:42;;;;;;;8.73;7.75;;;;;;;19.87;100.00;100320.44;1754372;81;21152;-85
2022/07/14 06:50:09;;;;;;;8.70;7.85;;;;;;;20.12;100.00;100321.45;1754250;81;21494;-84
2022/07/14 06:52:37;;;;;;;9.65;8.10;;;;;;;20.26;100.00;100320.62;1754748;81;21057;-89
2022/07/14 06:55:07;;;;;;;8.65;7.85;;;;;;;20.35;100.00;100328.44;1754574;81;21097;-84
2022/07/14 06:57:35;;;;;;;8.85;7.95;;;;;;;20.35;100.00;100327.12;1754595;81;21068;-86
2022/07/14 07:00:08;;;;;;;7.20;5.80;;;;;;;20.30;100.00;100325.03;1749915;81;21791;-87
2022/07/14 07:02:36;;;;;;;9.98;6.47;;;;;;;20.30;100.00;100329.80;1730678;81;21504;-88
2022/07/14 07:07:51;;;;;;;7.03;6.22;;;;;;;20.25;100.00;100332.69;1734361;82;21011;-85
2022/07/14 07:10:18;;;;;;;12.35;7.80;;;;;;;20.20;100.00;100323.18;1733937;82;21602;-85
2022/07/14 07:12:46;;;;;;;7.03;6.33;;;;;;;20.25;100.00;100329.55;1740228;82;21148;-87
2022/07/14 07:15:14;;;;;;;6.75;4.92;;;;;;;20.38;100.00;100337.30;1735807;82;21718;-86
2022/07/14 07:17:41;;;;;;;5.53;4.40;;;;;;;20.42;100.00;100329.33;1744335;82;21077;-86
2022/07/14 07:20:09;;;;;;;3.98;3.67;;;;;;;20.35;100.00;100330.57;1735417;82;21025;-86
2022/07/14 07:22:37;;;;;;;4.25;3.95;;;;;;;20.23;100.00;100326.27;1733822;82;21030;-85
2022/07/14 07:25:06;;;;;;;4.00;3.70;;;;;;;20.06;100.00;100329.64;1740167;82;21136;-86
2022/07/14 07:27:35;;;;;;;6.25;4.05;;;;;;;19.88;100.00;100323.40;1722980;82;21053;-85
2022/07/14 07:30:03;;;;;;;4.67;4.28;;;;;;;19.81;100.00;100329.91;1744591;82;21627;-86
2022/07/14 07:32:32;;;;;;;4.25;3.95;;;;;;;19.94;100.00;100325.81;1749365;82;21522;-85
2022/07/14 07:34:59;;;;;;;3.90;3.60;;;;;;;20.24;100.00;100326.59;1745937;82;21494;-86
2022/07/14 07:37:28;;;;;;;4.50;4.10;;;;;;;20.55;100.00;100320.20;1731456;80;21152;-89
2022/07/14 07:39:58;;;;;;;4.12;3.80;;;;;;;20.70;100.00;100328.57;1734556;80;21081;-87
2022/07/14 07:42:25;;;;;;;4.20;3.90;;;;;;;20.65;100.00;100330.45;1739660;80;21054;-88
2022/07/14 07:44:55;;;;;;;5.12;3.85;;;;;;;20.45;100.00;100333.73;1734375;82;21160;-89
2022/07/14 07:47:23;;;;;;;4.72;3.58;;;;;;;20.18;100.00;100345.33;1735971;81;21120;-87
2022/07/14 07:49:52;;;;;;;5.55;2.95;;;;;;;19.73;100.00;100372.27;1742355;82;21775;-87
2022/07/14 07:52:20;;;;;;;3.12;2.83;;;;;;;19.07;100.00;100367.08;1744229;80;21042;-87
2022/07/14 07:54:48;;;;;;;2.55;2.35;;;;;;;18.56;100.00;100378.11;1748793;82;21515;-87
2022/07/14 07:57:16;;;;;;;2.40;2.27;;;;;;;18.18;100.00;100387.20;1747200;81;21001;-87
2022/07/14 07:59:44;;;;;;;2.15;1.92;;;;;;;17.88;100.00;100382.16;1741823;80;21051;-85
2022/07/14 08:02:12;;;;;;;2.50;2.30;;;;;;;17.68;100.00;100385.18;1745079;82;21255;-88
2022/07/14 08:04:40;;;;;;;2.47;2.27;;;;;;;17.56;100.00;100382.08;1720516;82;21688;-86
2022/07/14 08:07:07;;;;;;;2.50;2.30;;;;;;;17.55;100.00;100392.28;1713872;81;21123;-87
2022/07/14 08:09:34;;;;;;;2.60;2.50;;;;;;;17.63;100.00;100387.00;1708683;82;21534;-85
2022/07/14 08:12:03;;;;;;;2.95;2.62;;;;;;;17.91;100.00;100389.23;1713187;81;21076;-86
2022/07/14 08:14:49;;;;;;;2.80;2.60;;;;;;;18.22;100.00;100392.95;1746368;80;21143;-86
2022/07/14 08:17:18;;;;;;;2.60;2.40;;;;;;;18.44;100.00;100395.33;1748843;82;21031;-87
2022/07/14 08:19:47;;;;;;;2.00;1.90;;;;;;;18.55;100.00;100394.11;1741498;80;21078;-89
2022/07/14 08:22:15;;;;;;;2.00;1.60;;;;;;;18.60;100.00;100394.41;1708716;83;21046;-86
2022/07/14 08:24:42;;;;;;;2.35;2.15;;;;;;;18.65;100.00;100381.54;1708876;84;21616;-88
2022/07/14 08:27:09;;;;;;;2.10;2.00;;;;;;;18.68;100.00;100390.41;1713518;80;21154;-88
2022/07/14 08:29:36;;;;;;;2.75;2.20;;;;;;;18.73;100.00;100395.16;1732019;82;21029;-90
2022/07/14 08:32:05;;;;;;;2.98;2.00;;;;;;;18.83;100.00;100389.16;1732827;82;21071;-89
2022/07/14 08:34:32;;;;;;;2.72;2.52;;;;;;;18.99;100.00;100397.48;1743761;80;21053;-88
2022/07/14 08:36:59;;;;;;;2.27;2.17;;;;;;;19.18;100.00;100394.05;1683647;85;21610;-86
2022/07/14 08:39:27;;;;;;;2.20;2.10;;;;;;;19.31;100.00;100395.58;1680853;84;21151;-87
2022/07/14 08:41:55;;;;;;;2.17;2.08;;;;;;;19.42;100.00;100396.16;1693519;83;21595;-88
2022/07/14 08:44:25;;;;;;;2.67;2.50;;;;;;;19.62;100.00;100391.19;1709065;83;21136;-87
2022/07/14 08:46:55;;;;;;;3.92;2.70;;;;;;;19.82;100.00;100392.31;1735551;82;21088;-86
2022/07/14 08:49:23;;;;;;;2.98;2.75;;;;;;;20.04;100.00;100400.35;1743099;82;21058;-87
2022/07/14 08:51:51;;;;;;;3.42;3.22;;;;;;;20.14;100.00;100396.94;1735220;82;21803;-86
2022/07/14 08:54:19;;;;;;;3.15;2.95;;;;;;;20.20;100.00;100395.36;1738142;81;21086;-86
2022/07/14 08:56:46;;;;;;;3.08;2.87;;;;;;;20.28;100.00;100391.80;1741920;81;21024;-87
2022/07/14 08:59:13;;;;;;;4.58;2.87;;;;;;;20.37;100.00;100394.67;1723989;82;21540;-86
2022/07/14 09:01:45;;;;;;;2.95;2.75;;;;;;;20.49;100.00;100391.04;1742079;81;21034;-86
2022/07/14 09:04:12;;;;;;;3.45;3.25;;;;;;;20.65;100.00;100387.33;1730924;80;21223;-85
2022/07/14 09:06:53;;;;;;;5.70;3.35;;;;;;;20.90;100.00;100392.30;1697395;83;22163;-87
2022/07/14 09:09:25;;;;;;;3.17;2.97;;;;;;;21.18;100.00;100387.56;1754999;80;21589;-87
2022/07/14 09:11:56;;;;;;;3.10;2.90;;;;;;;21.45;100.00;100393.89;1755543;80;21499;-86
2022/07/14 09:14:26;;;;;;;3.92;2.72;;;;;;;21.58;100.00;100388.70;1771290;80;22116;-87
2022/07/14 09:17:13;;;;;;;3.63;2.90;;;;;;;21.58;100.00;100397.17;1768732;80;21157;-86
2022/07/14 09:20:07;;;;;;;2.40;2.30;;;;;;;21.68;100.00;100400.80;1714355;80;21080;-88
2022/07/14 09:22:38;;;;;;;2.75;2.55;;;;;;;21.86;100.00;100392.33;1771211;80;21559;-89
2022/07/14 09:25:11;;;;;;;3.47;2.40;;;;;;;22.12;100.00;100397.47;1754291;80;21041;-88
2022/07/14 09:27:40;;;;;;;3.70;2.50;;;;;;;22.17;100.00;100393.22;1762343;80;21575;-87
2022/07/14 09:30:12;;;;;;;2.35;2.25;;;;;;;22.05;100.00;100394.28;1761163;80;21252;-86
2022/07/14 09:33:04;;;;;;;3.45;2.40;;;;;;;21.91;100.00;100389.94;1754253;80;21021;-86
2022/07/14 09:35:39;;;;;;;2.67;2.37;;;;;;;21.77;100.00;100390.84;1763549;80;21452;-86
2022/07/14 09:38:22;;;;;;;2.25;2.12;;;;;;;21.56;100.00;100397.31;1758687;80;21006;-88
2022/07/14 09:40:51;;;;;;;2.20;2.10;;;;;;;21.34;100.00;100407.64;1759074;80;21048;-87
2022/07/14 09:43:19;;;;;;;2.58;2.37;;;;;;;21.09;100.00;100411.52;1755437;80;21092;-88
2022/07/14 09:45:54;;;;;;;3.27;2.80;;;;;;;20.94;100.00;100425.33;1777238;80;21026;-85
2022/07/14 09:48:21;;;;;;;2.60;2.40;;;;;;;20.82;100.00;100421.52;1761466;80;21527;-87
2022/07/14 09:50:59;;;;;;;3.95;2.65;;;;;;;20.79;100.00;100427.50;1770126;80;21065;-91
2022/07/14 09:53:32;;;;;;;2.62;2.42;;;;;;;20.89;100.00;100429.86;1753018;80;21045;-86
2022/07/14 09:56:07;;;;;;;2.65;2.45;;;;;;;21.03;100.00;100429.47;1767900;80;21570;-88
2022/07/14 09:58:51;;;;;;;2.62;2.42;;;;;;;21.28;100.00;100421.97;1764044;80;21018;-86
2022/07/14 10:01:19;;;;;;;2.62;2.42;;;;;;;21.53;100.00;100426.02;1751013;81;21472;-86
2022/07/14 10:03:49;;;;;;;2.20;2.10;;;;;;;21.60;100.00;100428.23;1730307;80;21061;-89
2022/07/14 10:06:17;;;;;;;2.37;2.22;;;;;;;21.78;100.00;100430.42;1767412;80;21031;-86
2022/07/14 10:08:50;;;;;;;4.25;2.17;;;;;;;22.01;100.00;100420.86;1740879;82;21516;-87
2022/07/14 10:11:17;;;;;;;2.10;2.00;;;;;;;21.96;100.00;100427.27;1738767;82;21083;-86
2022/07/14 10:13:46;;;;;;;3.77;2.22;;;;;;;21.73;100.00;100436.79;1741815;81;21035;-87
2022/07/14 10:16:15;;;;;;;1.98;1.87;;;;;;;21.44;100.00;100439.92;1759630;80;21080;-85
2022/07/14 10:18:45;;;;;;;2.52;2.15;;;;;;;21.14;100.00;100451.98;1746367;81;21085;-88
2022/07/14 10:21:15;;;;;;;6.42;2.50;;;;;;;20.84;100.00;100449.43;1699942;83;21683;-86
2022/07/14 10:23:43;;;;;;;3.12;2.50;;;;;;;20.51;100.00;100458.28;1749642;81;21351;-88
2022/07/14 10:26:12;;;;;;;2.40;2.30;;;;;;;20.27;100.00;100465.50;1749291;81;21591;-87
2022/07/14 10:28:41;;;;;;;2.12;2.02;;;;;;;20.07;100.00;100462.08;1749083;81;21559;-89
2022/07/14 10:31:37;;;;;;;3.05;2.85;;;;;;;19.86;100.00;100467.58;1743409;80;21038;-86
2022/07/14 10:34:30;;;;;;;4.80;4.40;;;;;;;19.61;100.00;100476.21;1743363;80;21232;-87
2022/07/14 10:37:04;;;;;;;7.90;7.10;;;;;;;19.27;100.00;100480.61;1754916;81;21075;-88
2022/07/14 10:40:09;;;;;;;7.72;7.10;;;;;;;19.03;100.00;100483.70;1751475;80;21065;-87
2022/07/14 10:43:02;;;;;;;5.85;4.05;;;;;;;18.88;100.00;100484.42;1754720;80;21045;-88
2022/07/14 10:45:30;;;;;;;3.05;2.85;;;;;;;18.78;100.00;100482.99;1737144;81;21037;-87
2022/07/14 10:47:57;;;;;;;3.00;2.80;;;;;;;18.72;100.00;100483.17;1741431;82;21105;-85
2022/07/14 10:50:28;;;;;;;5.35;2.95;;;;;;;18.78;100.00;100490.42;1745625;80;21084;-88
2022/07/14 10:53:05;;;;;;;3.00;2.80;;;;;;;18.93;100.00;100483.93;1760118;81;21073;-86
2022/07/14 10:55:36;;;;;;;3.35;3.05;;;;;;;19.22;100.00;100485.09;1749608;80;21029;-86
2022/07/14 10:58:21;;;;;;;2.62;2.42;;;;;;;19.64;100.00;100481.12;1743698;80;22132;-86
2022/07/14 11:00:58;;;;;;;2.42;2.22;;;;;;;20.10;100.00;100472.30;1743146;80;21583;-89
2022/07/14 11:03:37;;;;;;;2.35;2.17;;;;;;;20.58;100.00;100469.76;1766005;81;21104;-87
2022/07/14 11:06:12;;;;;;;2.37;2.17;;;;;;;20.97;100.00;100461.98;1685446;84;21495;-90
2022/07/14 11:08:45;;;;;;;2.40;2.20;;;;;;;21.39;100.00;100456.38;1727102;82;21064;-87
2022/07/14 11:11:23;;;;;;;1.90;1.80;;;;;;;21.79;100.00;100447.97;1721717;82;21034;-87
2022/07/14 11:14:12;;;;;;;1.85;1.75;;;;;;;22.00;100.00;100444.41;1721132;82;21165;-88
2022/07/14 11:16:55;;;;;;;2.25;2.08;;;;;;;21.98;100.00;100441.64;1677346;84;21559;-90
2022/07/14 11:19:31;;;;;;;3.05;2.00;;;;;;;21.87;100.00;100454.41;1714231;82;21602;-87
2022/07/14 11:22:19;;;;;;;2.25;1.70;;;;;;;21.82;100.00;100452.05;1692957;82;21046;-87
2022/07/14 11:24:59;;;;;;;1.85;1.75;;;;;;;21.78;100.00;100454.27;1746917;81;37481;-89
2022/07/14 11:27:32;;;;;;;2.15;1.50;;;;;;;21.69;100.00;100465.50;1752346;81;21190;-89
2022/07/14 11:30:27;;;;;;;1.90;1.80;;;;;;;21.59;100.00;100458.42;1695108;83;21091;-90
2022/07/14 11:33:07;;;;;;;2.55;1.80;;;;;;;21.52;100.00;100462.78;1698979;83;21038;-89
2022/07/14 11:38:40;;;;;;;1.80;1.70;;;;;;;21.37;100.00;100474.80;1695490;84;21464;-88
2022/07/14 11:41:10;;;;;;;1.90;1.80;;;;;;;21.24;100.00;100480.79;1695464;83;21837;-86